createdAt,value
2023-05-21T00:00:25.550Z,96247.50
2023-05-21T00:02:52.507Z,96251.22
2023-05-21T00:05:19.468Z,96242.72
2023-05-21T00:07:47.302Z,96251.25
2023-05-21T00:10:14.147Z,96250.81
2023-05-21T00:12:42.005Z,96243.31
2023-05-21T00:15:09.514Z,96237.34
2023-05-21T00:17:37.184Z,96243.06
2023-05-21T00:20:09.125Z,96235.19
2023-05-21T00:22:36.443Z,96238.06
2023-05-21T00:25:03.855Z,96230.03
2023-05-21T00:27:30.743Z,96232.72
2023-05-21T00:29:57.920Z,96231.69
2023-05-21T00:32:24.811Z,96235.19
2023-05-21T00:34:51.693Z,96232.38
2023-05-21T00:37:18.944Z,96228.84
2023-05-21T00:39:45.723Z,96227.03
2023-05-21T00:42:13.274Z,96228.03
2023-05-21T00:44:40.381Z,96227.34
2023-05-21T00:47:08.282Z,96222.03
2023-05-21T00:49:35.112Z,96223.03
2023-05-21T00:52:01.951Z,96224.69
2023-05-21T00:54:29.563Z,96215.56
2023-05-21T00:56:56.723Z,96215.75
2023-05-21T00:59:24.329Z,96217.59
2023-05-21T01:01:56.139Z,96214.94
2023-05-21T01:04:24.241Z,96224.41
2023-05-21T01:06:53.463Z,96215.75
2023-05-21T01:13:51.137Z,96216.56
2023-05-21T01:16:18.174Z,96213.91
2023-05-21T01:18:45.467Z,96210.88
2023-05-21T01:21:12.556Z,96209.03
2023-05-21T01:23:39.393Z,96208.84
2023-05-21T01:26:07.480Z,96202.69
2023-05-21T01:28:34.779Z,96199.81
2023-05-21T01:31:17.345Z,96197.97
2023-05-21T01:33:50.336Z,96204.16
2023-05-21T01:36:26.878Z,96194.97
2023-05-21T01:39:15.088Z,96188.25
2023-05-21T01:41:45.291Z,96185.19
2023-05-21T01:44:13.188Z,96183.16
2023-05-21T01:46:40.204Z,96189.78
2023-05-21T01:49:08.976Z,96192.47
2023-05-21T01:51:36.642Z,96181.78
2023-05-21T01:54:03.611Z,96186.28
2023-05-21T01:56:30.390Z,96175.97
2023-05-21T01:58:58.681Z,96180.47
2023-05-21T02:01:27.311Z,96174.97
2023-05-21T02:03:54.274Z,96180.47
2023-05-21T02:06:21.101Z,96182.34
2023-05-21T02:08:48.492Z,96178.84
2023-05-21T02:11:15.362Z,96170.16
2023-05-21T02:13:43.168Z,96176.81
2023-05-21T02:16:15.078Z,96166.97
2023-05-21T02:18:45.122Z,96159.75
2023-05-21T02:21:12.115Z,96162.81
2023-05-21T02:23:38.897Z,96162.16
2023-05-21T02:26:05.765Z,96160.13
2023-05-21T02:28:33.133Z,96157.00
2023-05-21T02:31:00.688Z,96157.81
2023-05-21T02:33:27.514Z,96160.66
2023-05-21T02:35:54.319Z,96159.19
2023-05-21T02:38:23.347Z,96160.22
2023-05-21T02:40:53.652Z,96160.22
2023-05-21T02:43:20.650Z,96155.03
2023-05-21T02:45:47.857Z,96151.91
2023-05-21T02:48:14.709Z,96152.72
2023-05-21T02:50:41.566Z,96166.09
2023-05-21T02:53:08.411Z,96172.00
2023-05-21T02:55:35.781Z,96167.66
2023-05-21T02:58:02.841Z,96169.31
2023-05-21T03:00:29.907Z,96172.72
2023-05-21T03:02:56.813Z,96171.41
2023-05-21T03:05:24.529Z,96169.94
2023-05-21T03:07:51.478Z,96175.09
2023-05-21T03:10:18.420Z,96169.75
2023-05-21T03:12:45.250Z,96173.50
2023-05-21T03:15:14.943Z,96168.69
2023-05-21T03:17:44.831Z,96170.19
2023-05-21T03:20:17.234Z,96177.19
2023-05-21T03:22:45.063Z,96171.66
2023-05-21T03:25:12.930Z,96173.34
2023-05-21T03:27:40.056Z,96163.00
2023-05-21T03:30:07.408Z,96172.03
2023-05-21T03:32:38.021Z,96162.19
2023-05-21T03:35:05.416Z,96163.38
2023-05-21T03:37:32.343Z,96165.84
2023-05-21T03:39:59.154Z,96163.84
2023-05-21T03:42:25.981Z,96163.19
2023-05-21T03:44:52.722Z,96163.38
2023-05-21T03:47:19.535Z,96151.88
2023-05-21T03:49:46.346Z,96152.50
2023-05-21T03:52:13.190Z,96157.31
2023-05-21T03:54:39.971Z,96158.75
2023-05-21T03:57:06.876Z,96159.44
2023-05-21T03:59:33.721Z,96154.91
2023-05-21T04:02:00.553Z,96154.09
2023-05-21T04:04:29.572Z,96157.41
2023-05-21T04:06:56.508Z,96158.06
2023-05-21T04:09:23.401Z,96169.84
2023-05-21T04:11:50.144Z,96169.66
2023-05-21T04:14:16.943Z,96172.00
2023-05-21T04:16:44.304Z,96166.28
2023-05-21T04:19:11.249Z,96178.44
2023-05-21T04:21:38.081Z,96160.38
2023-05-21T04:24:05.041Z,96166.38
2023-05-21T04:26:34.156Z,96172.34
2023-05-21T04:29:03.991Z,96170.16
2023-05-21T04:31:32.389Z,96177.91
2023-05-21T04:33:59.642Z,96181.53
2023-05-21T04:36:29.084Z,96184.91
2023-05-21T04:38:56.011Z,96183.34
2023-05-21T04:41:22.895Z,96176.53
2023-05-21T04:43:49.771Z,96175.91
2023-05-21T04:46:16.762Z,96175.72
2023-05-21T04:48:43.534Z,96175.16
2023-05-21T04:51:10.334Z,96174.78
2023-05-21T04:53:37.166Z,96181.44
2023-05-21T04:56:04.118Z,96178.22
2023-05-21T04:58:33.009Z,96181.84
2023-05-21T05:01:03.320Z,96185.78
2023-05-21T05:03:30.466Z,96190.13
2023-05-21T05:05:57.394Z,96187.34
2023-05-21T05:08:24.150Z,96189.94
2023-05-21T05:10:51.002Z,96192.56
2023-05-21T05:13:17.783Z,96196.56
2023-05-21T05:15:44.541Z,96195.53
2023-05-21T05:18:12.115Z,96197.38
2023-05-21T05:20:39.005Z,96194.25
2023-05-21T05:23:05.977Z,96192.13
2023-05-21T05:25:33.023Z,96194.31
2023-05-21T05:27:59.754Z,96199.09
2023-05-21T05:30:26.613Z,96192.94
2023-05-21T05:32:53.415Z,96191.72
2023-05-21T05:35:20.313Z,96200.81
2023-05-21T05:37:47.117Z,96196.03
2023-05-21T05:40:13.922Z,96197.09
2023-05-21T05:42:40.805Z,96197.72
2023-05-21T05:45:08.201Z,96199.59
2023-05-21T05:47:34.965Z,96202.91
2023-05-21T05:50:01.772Z,96196.28
2023-05-21T05:52:28.667Z,96203.72
2023-05-21T05:54:55.519Z,96209.31
2023-05-21T05:57:22.336Z,96207.41
2023-05-21T05:59:49.123Z,96210.34
2023-05-21T06:02:16.496Z,96206.81
2023-05-21T06:04:43.737Z,96214.88
2023-05-21T06:07:10.881Z,96213.66
2023-05-21T06:09:39.039Z,96203.03
2023-05-21T06:12:07.181Z,96205.72
2023-05-21T06:14:33.979Z,96211.69
2023-05-21T06:17:00.775Z,96213.06
2023-05-21T06:19:27.618Z,96206.19
2023-05-21T06:21:54.508Z,96207.78
2023-05-21T06:24:21.439Z,96206.94
2023-05-21T06:26:48.182Z,96204.44
2023-05-21T06:29:15.565Z,96207.41
2023-05-21T06:31:42.655Z,96209.16
2023-05-21T06:34:09.534Z,96215.28
2023-05-21T06:36:51.925Z,96217.13
2023-05-21T06:39:18.745Z,96215.97
2023-05-21T06:41:45.632Z,96213.03
2023-05-21T06:44:12.477Z,96220.50
2023-05-21T06:46:39.244Z,96224.03
2023-05-21T06:49:07.248Z,96214.56
2023-05-21T06:51:34.252Z,96214.38
2023-05-21T06:54:01.214Z,96210.03
2023-05-21T06:56:27.968Z,96202.97
2023-05-21T06:58:54.753Z,96203.50
2023-05-21T07:01:22.615Z,96204.78
2023-05-21T07:03:49.658Z,96203.34
2023-05-21T07:06:17.005Z,96202.13
2023-05-21T07:08:43.749Z,96194.66
2023-05-21T07:11:10.541Z,96195.44
2023-05-21T07:13:37.526Z,96191.13
2023-05-21T07:16:04.531Z,96192.09
2023-05-21T07:18:31.616Z,96199.31
2023-05-21T07:20:58.586Z,96195.09
2023-05-21T07:23:25.412Z,96201.31
2023-05-21T07:25:52.223Z,96200.56
2023-05-21T07:28:19.060Z,96204.16
2023-05-21T07:30:46.093Z,96199.81
2023-05-21T07:33:12.948Z,96189.00
2023-05-21T07:35:39.715Z,96198.44
2023-05-21T07:38:06.607Z,96193.06
2023-05-21T07:40:33.472Z,96204.69
2023-05-21T07:43:01.541Z,96199.16
2023-05-21T07:45:28.494Z,96205.91
2023-05-21T07:47:55.322Z,96211.81
2023-05-21T07:50:22.516Z,96204.16
2023-05-21T07:52:49.385Z,96205.72
2023-05-21T07:55:16.246Z,96196.34
2023-05-21T07:57:43.017Z,96199.97
2023-05-21T08:00:10.877Z,96198.22
2023-05-21T08:02:37.670Z,96198.72
2023-05-21T08:05:04.826Z,96199.03
2023-05-21T08:07:32.725Z,96198.22
2023-05-21T08:10:00.236Z,96198.94
2023-05-21T08:12:28.472Z,96193.66
2023-05-21T08:14:55.225Z,96197.75
2023-05-21T08:17:22.066Z,96197.34
2023-05-21T08:19:48.995Z,96196.41
2023-05-21T08:22:15.953Z,96204.44
2023-05-21T08:24:42.728Z,96203.28
2023-05-21T08:27:10.270Z,96209.78
2023-05-21T08:29:37.234Z,96211.78
2023-05-21T08:32:04.373Z,96209.78
2023-05-21T08:34:31.854Z,96205.13
2023-05-21T08:36:58.635Z,96210.06
2023-05-21T08:39:25.345Z,96205.47
2023-05-21T08:42:04.848Z,96203.81
2023-05-21T08:44:34.386Z,96199.44
2023-05-21T08:47:03.054Z,96192.78
2023-05-21T08:49:34.908Z,96192.63
2023-05-21T08:52:02.463Z,96195.47
2023-05-21T08:54:29.285Z,96193.97
2023-05-21T08:56:58.141Z,96198.94
2023-05-21T08:59:25.303Z,96197.16
2023-05-21T09:01:52.913Z,96199.16
2023-05-21T09:04:21.875Z,96194.84
2023-05-21T09:06:49.411Z,96206.31
2023-05-21T09:09:34.258Z,96210.63
2023-05-21T09:12:01.130Z,96200.28
2023-05-21T09:14:29.041Z,96203.81
2023-05-21T09:16:55.869Z,96208.28
2023-05-21T09:19:23.282Z,96197.47
2023-05-21T09:21:53.167Z,96199.00
2023-05-21T09:24:25.209Z,96201.13
2023-05-21T09:26:52.646Z,96198.53
2023-05-21T09:29:19.553Z,96196.13
2023-05-21T09:31:46.592Z,96200.25
2023-05-21T09:34:16.332Z,96192.94
2023-05-21T09:36:44.176Z,96196.81
2023-05-21T09:39:16.482Z,96196.84
2023-05-21T09:41:43.388Z,96198.78
2023-05-21T09:44:10.879Z,96198.78
2023-05-21T09:46:39.777Z,96191.03
2023-05-21T09:49:06.767Z,96201.59
2023-05-21T09:51:33.750Z,96193.56
2023-05-21T09:54:01.290Z,96202.91
2023-05-21T09:56:32.048Z,96195.41
2023-05-21T09:59:02.095Z,96194.72
2023-05-21T10:01:32.347Z,96186.94
2023-05-21T10:04:00.747Z,96176.03
2023-05-21T10:06:30.191Z,96187.97
2023-05-21T10:08:59.455Z,96197.50
2023-05-21T10:11:30.795Z,96186.78
2023-05-21T10:14:09.296Z,96185.09
2023-05-21T10:16:37.500Z,96181.91
2023-05-21T10:19:06.085Z,96189.38
2023-05-21T10:21:35.955Z,96174.13
2023-05-21T10:24:04.414Z,96177.81
2023-05-21T10:26:31.583Z,96180.09
2023-05-21T10:29:00.446Z,96167.38
2023-05-21T10:31:28.690Z,96175.72
2023-05-21T10:33:56.362Z,96168.72
2023-05-21T10:36:24.795Z,96167.69
2023-05-21T10:38:51.619Z,96168.97
2023-05-21T10:41:22.697Z,96171.25
2023-05-21T10:44:14.183Z,96172.38
2023-05-21T10:46:40.992Z,96167.75
2023-05-21T10:49:34.531Z,96167.44
2023-05-21T10:52:39.680Z,96169.47
2023-05-21T10:55:37.654Z,96175.75
2023-05-21T10:58:48.731Z,96167.25
2023-05-21T11:01:18.908Z,96168.81
2023-05-21T11:03:48.795Z,96163.03
2023-05-21T11:06:26.813Z,96157.91
2023-05-21T11:08:55.621Z,96159.75
2023-05-21T11:11:44.338Z,96162.56
2023-05-21T11:14:35.201Z,96156.38
2023-05-21T11:17:10.522Z,96156.38
2023-05-21T11:19:39.716Z,96158.97
2023-05-21T11:22:20.668Z,96152.94
2023-05-21T11:24:49.358Z,96153.53
2023-05-21T11:27:37.502Z,96158.97
2023-05-21T11:30:17.805Z,96148.97
2023-05-21T11:33:12.452Z,96159.34
2023-05-21T11:35:58.280Z,96153.25
2023-05-21T11:38:29.462Z,96137.44
2023-05-21T11:41:03.689Z,96143.41
2023-05-21T11:43:31.107Z,96136.34
2023-05-21T11:45:58.903Z,96130.44
2023-05-21T11:48:28.089Z,96134.88
2023-05-21T11:50:57.630Z,96134.13
2023-05-21T11:53:24.489Z,96144.31
2023-05-21T11:55:57.600Z,96141.41
2023-05-21T11:58:24.648Z,96138.81
2023-05-21T12:00:51.968Z,96132.97
2023-05-21T12:03:18.838Z,96135.28
2023-05-21T12:05:49.424Z,96134.28
2023-05-21T12:08:27.200Z,96131.75
2023-05-21T12:11:01.913Z,96127.75
2023-05-21T12:13:28.883Z,96135.47
2023-05-21T12:15:56.199Z,96136.25
2023-05-21T12:18:23.067Z,96134.50
2023-05-21T12:20:52.276Z,96125.97
2023-05-21T12:23:30.481Z,96140.22
2023-05-21T12:25:57.570Z,96134.59
2023-05-21T12:28:24.955Z,96132.28
2023-05-21T12:30:51.770Z,96129.59
2023-05-21T12:33:19.417Z,96130.75
2023-05-21T12:35:50.432Z,96129.88
2023-05-21T12:38:17.403Z,96121.59
2023-05-21T12:40:45.872Z,96124.94
2023-05-21T12:43:13.273Z,96129.31
2023-05-21T12:45:40.564Z,96117.34
2023-05-21T12:48:07.777Z,96125.94
2023-05-21T12:50:36.157Z,96120.47
2023-05-21T12:53:03.355Z,96114.63
2023-05-21T12:55:31.730Z,96123.91
2023-05-21T12:58:05.971Z,96114.44
2023-05-21T13:00:33.445Z,96117.00
2023-05-21T13:03:01.971Z,96111.97
2023-05-21T13:05:28.902Z,96109.56
2023-05-21T13:07:55.732Z,96110.50
2023-05-21T13:10:22.596Z,96105.00
2023-05-21T13:12:49.482Z,96098.91
2023-05-21T13:15:16.537Z,96097.56
2023-05-21T13:17:43.395Z,96090.16
2023-05-21T13:20:15.550Z,96086.69
2023-05-21T13:22:46.810Z,96085.56
2023-05-21T13:25:32.948Z,96090.38
2023-05-21T13:28:04.886Z,96077.00
2023-05-21T13:30:33.433Z,96075.63
2023-05-21T13:33:00.424Z,96066.94
2023-05-21T13:35:27.283Z,96070.28
2023-05-21T13:37:54.356Z,96070.59
2023-05-21T13:40:22.239Z,96070.44
2023-05-21T13:42:49.631Z,96057.78
2023-05-21T13:45:19.373Z,96048.88
2023-05-21T13:47:47.175Z,96049.47
2023-05-21T13:50:14.385Z,96047.97
2023-05-21T13:52:41.300Z,96045.22
2023-05-21T13:55:09.582Z,96046.59
2023-05-21T13:57:36.642Z,96041.50
2023-05-21T14:00:04.192Z,96044.97
2023-05-21T14:02:31.173Z,96050.22
2023-05-21T14:04:57.975Z,96046.28
2023-05-21T14:07:24.805Z,96046.41
2023-05-21T14:09:52.471Z,96048.66
2023-05-21T14:12:19.249Z,96050.06
2023-05-21T14:14:46.202Z,96040.53
2023-05-21T14:17:13.050Z,96044.69
2023-05-21T14:19:39.873Z,96040.28
2023-05-21T14:22:06.784Z,96038.38
2023-05-21T14:24:33.594Z,96039.78
2023-05-21T14:27:00.808Z,96035.69
2023-05-21T14:29:27.671Z,96030.91
2023-05-21T14:31:54.540Z,96031.06
2023-05-21T14:34:21.340Z,96027.84
2023-05-21T14:36:48.067Z,96022.09
2023-05-21T14:39:15.003Z,96022.28
2023-05-21T14:41:41.838Z,96016.09
2023-05-21T14:44:08.766Z,96020.78
2023-05-21T14:46:36.897Z,96020.13
2023-05-21T14:49:03.955Z,96020.78
2023-05-21T14:51:31.696Z,96016.31
2023-05-21T14:53:58.678Z,96008.31
2023-05-21T14:56:28.379Z,96006.75
2023-05-21T14:58:55.700Z,96003.84
2023-05-21T15:01:22.719Z,96005.81
2023-05-21T15:03:49.860Z,96009.22
2023-05-21T15:06:16.884Z,96008.56
2023-05-21T15:08:43.758Z,96008.19
2023-05-21T15:11:10.633Z,96002.97
2023-05-21T15:13:38.337Z,96003.16
2023-05-21T15:16:05.482Z,96008.25
2023-05-21T15:18:32.237Z,96002.59
2023-05-21T15:20:59.371Z,95999.88
2023-05-21T15:23:26.227Z,96008.44
2023-05-21T15:25:53.070Z,96004.56
2023-05-21T15:28:20.084Z,96009.88
2023-05-21T15:30:46.918Z,96004.56
2023-05-21T15:33:13.875Z,95997.44
2023-05-21T15:35:41.256Z,96002.25
2023-05-21T15:38:08.346Z,95997.09
2023-05-21T15:40:35.197Z,95993.81
2023-05-21T15:43:01.967Z,95995.44
2023-05-21T15:45:28.736Z,95995.78
2023-05-21T15:47:55.627Z,95999.31
2023-05-21T15:50:22.484Z,95987.50
2023-05-21T15:52:51.578Z,95995.41
2023-05-21T15:55:20.038Z,95991.25
2023-05-21T15:57:46.852Z,95992.25
2023-05-21T16:00:14.080Z,95989.91
2023-05-21T16:02:42.017Z,95989.91
2023-05-21T16:05:09.446Z,95989.75
2023-05-21T16:07:37.951Z,95990.47
2023-05-21T16:10:05.972Z,95987.91
2023-05-21T16:12:32.775Z,95994.63
2023-05-21T16:14:59.739Z,95989.69
2023-05-21T16:17:26.782Z,95993.94
2023-05-21T16:19:53.541Z,95991.94
2023-05-21T16:22:24.061Z,95996.56
2023-05-21T16:24:50.895Z,95994.47
2023-05-21T16:27:17.735Z,95993.69
2023-05-21T16:29:44.746Z,95999.56
2023-05-21T16:32:13.998Z,96004.16
2023-05-21T16:34:41.283Z,96011.56
2023-05-21T16:37:11.417Z,96013.94
2023-05-21T16:39:38.305Z,96017.97
2023-05-21T16:42:05.255Z,96025.13
2023-05-21T16:44:32.468Z,96023.59
2023-05-21T16:47:00.061Z,96027.97
2023-05-21T16:49:27.685Z,96018.06
2023-05-21T16:51:54.517Z,96020.66
2023-05-21T16:54:21.765Z,96018.31
2023-05-21T16:56:48.642Z,96008.09
2023-05-21T16:59:15.361Z,96007.16
2023-05-21T17:01:42.898Z,96019.97
2023-05-21T17:04:09.744Z,96017.16
2023-05-21T17:06:36.652Z,96018.25
2023-05-21T17:09:03.889Z,96017.31
2023-05-21T17:11:31.289Z,96018.81
2023-05-21T17:13:58.184Z,96021.19
2023-05-21T17:16:25.161Z,96029.16
2023-05-21T17:18:52.254Z,96028.56
2023-05-21T17:21:19.436Z,96031.97
2023-05-21T17:23:46.249Z,96028.56
2023-05-21T17:26:14.056Z,96034.78
2023-05-21T17:28:40.963Z,96031.19
2023-05-21T17:31:09.700Z,96036.81
2023-05-21T17:33:37.662Z,96038.19
2023-05-21T17:36:04.679Z,96041.31
2023-05-21T17:38:31.536Z,96045.19
2023-05-21T17:40:59.473Z,96040.69
2023-05-21T17:43:27.803Z,96052.63
2023-05-21T17:45:54.668Z,96048.72
2023-05-21T17:48:21.544Z,96048.13
2023-05-21T17:50:48.459Z,96055.88
2023-05-21T17:53:16.047Z,96055.50
2023-05-21T17:55:42.864Z,96056.56
2023-05-21T17:58:10.199Z,96061.09
2023-05-21T18:00:37.083Z,96059.34
2023-05-21T18:03:04.460Z,96058.72
2023-05-21T18:05:31.320Z,96063.34
2023-05-21T18:07:58.922Z,96064.94
2023-05-21T18:10:25.755Z,96070.47
2023-05-21T18:12:52.486Z,96067.84
2023-05-21T18:15:19.391Z,96075.78
2023-05-21T18:17:47.194Z,96074.84
2023-05-21T18:20:14.115Z,96074.34
2023-05-21T18:22:40.891Z,96077.31
2023-05-21T18:25:08.371Z,96082.13
2023-05-21T18:27:35.118Z,96088.25
2023-05-21T18:30:03.463Z,96085.00
2023-05-21T18:32:30.424Z,96081.75
2023-05-21T18:34:58.609Z,96093.41
2023-05-21T18:37:27.245Z,96097.63
2023-05-21T18:39:54.102Z,96097.06
2023-05-21T18:42:20.880Z,96090.88
2023-05-21T18:44:50.695Z,96099.19
2023-05-21T18:47:17.552Z,96094.06
2023-05-21T18:49:44.394Z,96099.69
2023-05-21T18:52:11.148Z,96096.44
2023-05-21T18:54:37.940Z,96108.47
2023-05-21T18:57:04.868Z,96106.84
2023-05-21T18:59:31.682Z,96118.25
2023-05-21T19:01:58.561Z,96115.16
2023-05-21T19:04:25.488Z,96121.56
2023-05-21T19:06:52.231Z,96118.88
2023-05-21T19:09:18.983Z,96124.69
2023-05-21T19:11:46.047Z,96130.06
2023-05-21T19:14:12.875Z,96134.84
2023-05-21T19:16:39.702Z,96135.47
2023-05-21T19:19:06.644Z,96139.22
2023-05-21T19:21:33.692Z,96145.41
2023-05-21T19:24:01.062Z,96145.41
2023-05-21T19:26:28.180Z,96148.72
2023-05-21T19:28:55.560Z,96156.56
2023-05-21T19:31:23.410Z,96163.16
2023-05-21T19:33:50.950Z,96165.22
2023-05-21T19:36:18.638Z,96162.13
2023-05-21T19:38:50.192Z,96168.75
2023-05-21T19:41:18.649Z,96170.19
2023-05-21T19:43:46.097Z,96175.53
2023-05-21T19:46:13.361Z,96176.78
2023-05-21T19:48:40.871Z,96181.31
2023-05-21T19:51:07.661Z,96185.22
2023-05-21T19:53:35.041Z,96183.97
2023-05-21T19:56:01.931Z,96186.41
2023-05-21T19:58:30.470Z,96178.13
2023-05-21T20:00:59.433Z,96182.00
2023-05-21T20:03:27.151Z,96181.41
2023-05-21T20:05:54.402Z,96179.06
2023-05-21T20:08:21.638Z,96174.94
2023-05-21T20:10:51.443Z,96179.03
2023-05-21T20:13:19.027Z,96180.47
2023-05-21T20:15:45.828Z,96192.63
2023-05-21T20:18:13.095Z,96185.78
2023-05-21T20:20:41.403Z,96184.69
2023-05-21T20:23:08.908Z,96185.09
2023-05-21T20:25:35.906Z,96180.16
2023-05-21T20:28:03.509Z,96178.69
2023-05-21T20:30:34.685Z,96181.38
2023-05-21T20:33:02.836Z,96177.03
2023-05-21T20:35:30.519Z,96179.66
2023-05-21T20:37:57.468Z,96170.16
2023-05-21T20:40:24.349Z,96178.19
2023-05-21T20:42:53.603Z,96169.09
2023-05-21T20:45:21.281Z,96172.38
2023-05-21T20:47:48.305Z,96173.81
2023-05-21T20:50:17.778Z,96173.34
2023-05-21T20:52:47.071Z,96171.88
2023-05-21T20:55:14.789Z,96175.59
2023-05-21T20:57:42.297Z,96174.13
2023-05-21T21:00:11.993Z,96172.03
2023-05-21T21:02:39.315Z,96173.47
2023-05-21T21:05:06.799Z,96171.19
2023-05-21T21:07:34.390Z,96175.88
2023-05-21T21:10:01.588Z,96177.94
2023-05-21T21:12:28.702Z,96182.22
2023-05-21T21:14:55.848Z,96182.97
2023-05-21T21:17:23.238Z,96178.84
2023-05-21T21:19:50.166Z,96175.50
2023-05-21T21:22:18.400Z,96180.63
2023-05-21T21:24:45.856Z,96178.13
2023-05-21T21:27:12.779Z,96181.66
2023-05-21T21:29:39.845Z,96181.84
2023-05-21T21:32:07.023Z,96179.16
2023-05-21T21:34:33.838Z,96174.75
2023-05-21T21:37:00.623Z,96183.56
2023-05-21T21:39:27.384Z,96187.91
2023-05-21T21:41:54.260Z,96185.81
2023-05-21T21:44:21.323Z,96188.69
2023-05-21T21:46:48.182Z,96185.34
2023-05-21T21:49:17.472Z,96185.09
2023-05-21T21:51:44.895Z,96180.13
2023-05-21T21:54:12.119Z,96181.34
2023-05-21T21:56:38.945Z,96178.59
2023-05-21T21:59:05.802Z,96170.09
2023-05-21T22:01:32.834Z,96175.03
2023-05-21T22:03:59.810Z,96172.53
2023-05-21T22:06:27.811Z,96176.44
2023-05-21T22:08:55.099Z,96174.09
2023-05-21T22:11:22.137Z,96171.00
2023-05-21T22:13:49.180Z,96177.56
2023-05-21T22:16:16.214Z,96182.72
2023-05-21T22:18:43.084Z,96177.38
2023-05-21T22:21:10.930Z,96181.91
2023-05-21T22:23:38.607Z,96182.25
2023-05-21T22:26:06.023Z,96179.97
2023-05-21T22:28:33.024Z,96179.34
2023-05-21T22:30:59.870Z,96180.97
2023-05-21T22:33:26.996Z,96178.69
2023-05-21T22:35:54.628Z,96183.03
2023-05-21T22:38:22.162Z,96177.88
2023-05-21T22:40:48.983Z,96184.69
2023-05-21T22:43:15.884Z,96173.53
2023-05-21T22:45:42.711Z,96176.94
2023-05-21T22:48:10.091Z,96171.97
2023-05-21T22:50:38.791Z,96175.31
2023-05-21T22:53:06.820Z,96173.47
2023-05-21T22:55:33.632Z,96169.31
2023-05-21T22:58:00.420Z,96173.84
2023-05-21T23:00:27.751Z,96164.34
2023-05-21T23:02:55.047Z,96167.56
2023-05-21T23:05:22.387Z,96171.28
2023-05-21T23:07:49.615Z,96167.75
2023-05-21T23:10:16.481Z,96168.75
2023-05-21T23:12:43.289Z,96168.75
2023-05-21T23:15:10.906Z,96169.63
2023-05-21T23:17:38.640Z,96162.59
2023-05-21T23:20:07.514Z,96162.59
2023-05-21T23:22:35.481Z,96155.56
2023-05-21T23:25:02.736Z,96161.78
2023-05-21T23:27:29.603Z,96156.44
2023-05-21T23:29:56.600Z,96153.09
2023-05-21T23:32:23.835Z,96152.81
2023-05-21T23:34:50.901Z,96156.53
2023-05-21T23:37:17.805Z,96154.69
2023-05-21T23:39:48.375Z,96152.94
2023-05-21T23:42:18.390Z,96148.16
2023-05-21T23:44:45.224Z,96144.81
2023-05-21T23:47:12.369Z,96144.19
2023-05-21T23:49:39.532Z,96141.88
2023-05-21T23:52:06.837Z,96141.88
2023-05-21T23:54:33.747Z,96142.06
2023-05-21T23:57:01.050Z,96142.06
2023-05-21T23:59:27.889Z,96141.25
